createdAt,value
2017-08-06T00:01:28.514Z,96993.29
2017-08-06T00:03:54.467Z,96990.73
2017-08-06T00:06:20.337Z,96993.29
2017-08-06T00:08:46.219Z,96989.10
2017-08-06T00:11:12.099Z,96994.62
2017-08-06T00:13:37.947Z,96997.91
2017-08-06T00:16:03.847Z,96998.98
2017-08-06T00:18:29.762Z,96998.64
2017-08-06T00:20:55.604Z,96998.77
2017-08-06T00:23:21.419Z,96997.09
2017-08-06T00:25:47.327Z,96992.71
2017-08-06T00:28:13.232Z,96995.16
2017-08-06T00:30:39.689Z,96998.08
2017-08-06T00:33:05.560Z,96999.54
2017-08-06T00:35:31.434Z,96998.30
2017-08-06T00:37:57.358Z,96996.20
2017-08-06T00:40:23.158Z,96997.63
2017-08-06T00:42:48.969Z,97000.31
2017-08-06T00:45:14.915Z,97006.39
2017-08-06T00:47:40.891Z,97004.63
2017-08-06T00:50:06.823Z,97007.85
2017-08-06T00:52:32.662Z,97007.34
2017-08-06T00:54:58.532Z,97011.50
2017-08-06T00:57:24.375Z,97011.75
2017-08-06T00:59:50.340Z,97015.97
2017-08-06T01:02:16.216Z,97013.41
2017-08-06T01:04:42.062Z,97023.63
2017-08-06T01:07:07.969Z,97025.22
2017-08-06T01:09:33.831Z,97011.16
2017-08-06T01:11:59.647Z,97019.63
2017-08-06T01:14:25.445Z,97013.77
2017-08-06T01:16:51.304Z,96999.21
2017-08-06T01:19:17.107Z,97024.23
2017-08-06T01:21:42.911Z,97032.69
2017-08-06T01:24:08.739Z,97032.80
2017-08-06T01:26:34.600Z,97028.34
2017-08-06T01:29:00.536Z,97030.66
2017-08-06T01:31:26.444Z,97034.92
2017-08-06T01:33:52.376Z,97041.17
2017-08-06T01:36:18.210Z,97045.63
2017-08-06T01:38:44.043Z,97048.31
2017-08-06T01:41:10.002Z,97054.17
2017-08-06T01:43:35.859Z,97053.45
2017-08-06T01:46:01.688Z,97049.27
2017-08-06T01:48:27.551Z,97050.38
2017-08-06T01:50:53.430Z,97052.41
2017-08-06T01:53:19.334Z,97045.47
2017-08-06T01:55:45.219Z,97049.53
2017-08-06T01:58:11.048Z,97051.13
2017-08-06T02:00:36.874Z,97049.92
2017-08-06T02:03:02.698Z,97051.23
2017-08-06T02:05:28.502Z,97040.00
2017-08-06T02:07:54.305Z,97034.46
2017-08-06T02:10:20.163Z,97038.00
2017-08-06T02:12:45.969Z,97034.98
2017-08-06T02:15:11.910Z,97037.91
2017-08-06T02:17:37.740Z,97047.17
2017-08-06T02:20:03.574Z,97050.93
2017-08-06T02:22:29.421Z,97053.39
2017-08-06T02:24:55.238Z,97052.01
2017-08-06T02:27:21.106Z,97051.89
2017-08-06T02:29:46.920Z,97049.11
2017-08-06T02:32:12.719Z,97049.28
2017-08-06T02:34:38.570Z,97048.33
2017-08-06T02:37:04.546Z,97043.22
2017-08-06T02:39:30.400Z,97046.14
2017-08-06T02:41:56.212Z,97057.61
2017-08-06T02:44:22.019Z,97052.97
2017-08-06T02:46:47.871Z,97052.24
2017-08-06T02:49:13.804Z,97052.08
2017-08-06T02:51:39.692Z,97053.58
2017-08-06T02:54:05.504Z,97061.70
2017-08-06T02:56:31.330Z,97066.30
2017-08-06T02:58:57.133Z,97057.73
2017-08-06T03:01:22.970Z,97059.11
2017-08-06T03:03:48.772Z,97059.67
2017-08-06T03:06:14.822Z,97072.94
2017-08-06T03:08:40.752Z,97069.35
2017-08-06T03:11:06.567Z,97064.31
2017-08-06T03:13:32.417Z,97058.11
2017-08-06T03:15:58.236Z,97059.28
2017-08-06T03:18:24.094Z,97070.61
2017-08-06T03:20:49.896Z,97073.91
2017-08-06T03:23:15.731Z,97068.30
2017-08-06T03:25:41.527Z,97074.92
2017-08-06T03:28:07.320Z,97074.92
2017-08-06T03:30:33.215Z,97073.38
2017-08-06T03:32:59.232Z,97078.45
2017-08-06T03:35:25.225Z,97077.88
2017-08-06T03:37:51.033Z,97076.20
2017-08-06T03:40:16.884Z,97078.89
2017-08-06T03:42:42.692Z,97077.82
2017-08-06T03:45:08.511Z,97081.09
2017-08-06T03:47:34.544Z,97081.20
2017-08-06T03:50:00.487Z,97077.59
2017-08-06T03:52:26.364Z,97082.39
2017-08-06T03:54:52.168Z,97079.25
2017-08-06T03:57:17.944Z,97080.02
2017-08-06T03:59:43.770Z,97096.45
2017-08-06T04:02:09.556Z,97095.27
2017-08-06T04:04:35.460Z,97096.31
2017-08-06T04:07:01.264Z,97098.95
2017-08-06T04:09:27.095Z,97111.55
2017-08-06T04:11:52.864Z,97109.72
2017-08-06T04:14:18.688Z,97106.16
2017-08-06T04:16:44.505Z,97107.14
2017-08-06T04:19:10.290Z,97106.61
2017-08-06T04:21:36.124Z,97107.98
2017-08-06T04:24:01.940Z,97099.09
2017-08-06T04:26:27.754Z,97117.91
2017-08-06T04:28:53.562Z,97119.00
2017-08-06T04:31:19.356Z,97115.34
2017-08-06T04:33:45.190Z,97120.16
2017-08-06T04:36:11.119Z,97122.04
2017-08-06T04:38:36.930Z,97124.89
2017-08-06T04:41:02.933Z,97132.04
2017-08-06T04:43:28.739Z,97131.70
2017-08-06T04:45:54.580Z,97133.77
2017-08-06T04:48:20.380Z,97146.83
2017-08-06T04:50:46.400Z,97145.13
2017-08-06T04:53:12.214Z,97142.42
2017-08-06T04:55:38.001Z,97137.90
2017-08-06T04:58:03.772Z,97131.45
2017-08-06T05:00:29.637Z,97124.81
2017-08-06T05:02:55.501Z,97128.03
2017-08-06T05:05:21.281Z,97132.95
2017-08-06T05:07:47.109Z,97131.69
2017-08-06T05:10:12.994Z,97139.45
2017-08-06T05:12:38.893Z,97136.27
2017-08-06T05:15:04.783Z,97141.51
2017-08-06T05:17:30.617Z,97138.84
2017-08-06T05:19:56.436Z,97138.36
2017-08-06T05:22:22.221Z,97145.77
2017-08-06T05:24:48.020Z,97144.77
2017-08-06T05:27:13.886Z,97149.31
2017-08-06T05:29:39.709Z,97146.89
2017-08-06T05:32:05.484Z,97152.83
2017-08-06T05:34:31.305Z,97155.02
2017-08-06T05:36:57.200Z,97152.45
2017-08-06T05:39:23.178Z,97155.69
2017-08-06T05:41:49.004Z,97157.78
2017-08-06T05:44:14.796Z,97157.16
2017-08-06T05:46:41.321Z,97170.19
2017-08-06T05:49:07.221Z,97164.38
2017-08-06T05:51:33.032Z,97171.73
2017-08-06T05:53:58.968Z,97165.53
2017-08-06T05:56:24.870Z,97165.37
2017-08-06T05:58:50.737Z,97164.69
2017-08-06T06:01:16.533Z,97168.84
2017-08-06T06:03:42.338Z,97169.09
2017-08-06T06:06:08.232Z,97173.54
2017-08-06T06:08:34.049Z,97173.09
2017-08-06T06:10:59.845Z,97181.61
2017-08-06T06:13:25.661Z,97175.13
2017-08-06T06:15:51.533Z,97177.95
2017-08-06T06:18:17.509Z,97171.67
2017-08-06T06:20:43.337Z,97177.06
2017-08-06T06:23:09.146Z,97180.73
2017-08-06T06:25:34.980Z,97183.14
2017-08-06T06:28:00.825Z,97180.37
2017-08-06T06:30:26.801Z,97181.70
2017-08-06T06:32:52.643Z,97184.81
2017-08-06T06:35:18.477Z,97181.20
2017-08-06T06:37:44.268Z,97183.81
2017-08-06T06:40:10.078Z,97182.98
2017-08-06T06:42:35.933Z,97186.14
2017-08-06T06:45:01.832Z,97191.66
2017-08-06T06:47:27.649Z,97194.06
2017-08-06T06:49:53.496Z,97197.05
2017-08-06T06:52:19.465Z,97197.39
2017-08-06T06:54:45.332Z,97201.41
2017-08-06T06:57:11.185Z,97192.41
2017-08-06T06:59:37.055Z,97200.08
2017-08-06T07:02:02.936Z,97200.09
2017-08-06T07:04:28.840Z,97201.02
2017-08-06T07:06:54.638Z,97205.41
2017-08-06T07:09:20.426Z,97210.75
2017-08-06T07:11:46.565Z,97208.14
2017-08-06T07:14:12.365Z,97211.59
2017-08-06T07:16:38.225Z,97209.92
2017-08-06T07:19:04.137Z,97209.61
2017-08-06T07:21:29.914Z,97204.55
2017-08-06T07:23:55.796Z,97212.51
2017-08-06T07:26:21.577Z,97210.77
2017-08-06T07:28:47.520Z,97213.13
2017-08-06T07:31:13.521Z,97211.86
2017-08-06T07:33:39.513Z,97218.66
2017-08-06T07:36:05.342Z,97214.24
2017-08-06T07:38:31.157Z,97206.53
2017-08-06T07:40:56.982Z,97210.26
2017-08-06T07:43:22.810Z,97218.00
2017-08-06T07:45:48.613Z,97211.33
2017-08-06T07:48:14.388Z,97217.65
2017-08-06T07:50:40.195Z,97218.41
2017-08-06T07:53:06.009Z,97208.97
2017-08-06T07:55:31.850Z,97219.19
2017-08-06T07:57:57.651Z,97221.08
2017-08-06T08:00:23.576Z,97221.33
2017-08-06T08:02:49.474Z,97229.93
2017-08-06T08:05:15.276Z,97223.34
2017-08-06T08:07:41.253Z,97216.99
2017-08-06T08:10:07.121Z,97219.33
2017-08-06T08:12:32.987Z,97215.38
2017-08-06T08:14:58.813Z,97210.96
2017-08-06T08:17:24.618Z,97214.01
2017-08-06T08:19:51.049Z,97217.53
2017-08-06T08:22:16.915Z,97215.67
2017-08-06T08:24:42.744Z,97213.80
2017-08-06T08:27:08.573Z,97214.38
2017-08-06T08:29:34.586Z,97205.72
2017-08-06T08:32:00.374Z,97207.77
2017-08-06T08:34:26.157Z,97205.16
2017-08-06T08:36:51.982Z,97197.27
2017-08-06T08:39:17.858Z,97194.78
2017-08-06T08:41:43.709Z,97195.02
2017-08-06T08:44:09.689Z,97186.73
2017-08-06T08:46:37.082Z,97199.78
2017-08-06T08:49:02.928Z,97192.22
2017-08-06T08:51:28.886Z,97192.20
2017-08-06T08:53:54.743Z,97191.41
2017-08-06T08:56:20.567Z,97199.00
2017-08-06T08:58:46.418Z,97187.45
2017-08-06T09:01:12.217Z,97183.87
2017-08-06T09:03:38.016Z,97187.17
2017-08-06T09:06:03.858Z,97189.78
2017-08-06T09:08:29.736Z,97192.59
2017-08-06T09:10:55.549Z,97187.44
2017-08-06T09:13:21.385Z,97189.71
2017-08-06T09:15:47.268Z,97185.58
2017-08-06T09:18:13.127Z,97188.07
2017-08-06T09:20:38.965Z,97191.14
2017-08-06T09:23:04.880Z,97189.91
2017-08-06T09:25:30.810Z,97186.13
2017-08-06T09:27:56.652Z,97191.73
2017-08-06T09:30:22.514Z,97189.55
2017-08-06T09:32:48.325Z,97198.88
2017-08-06T09:35:14.170Z,97191.46
2017-08-06T09:37:39.970Z,97195.17
2017-08-06T09:40:05.783Z,97197.88
2017-08-06T09:42:31.639Z,97199.84
2017-08-06T09:44:57.560Z,97203.88
2017-08-06T09:47:23.486Z,97206.07
2017-08-06T09:49:49.504Z,97202.73
2017-08-06T09:52:15.528Z,97197.71
2017-08-06T09:54:41.478Z,97201.59
2017-08-06T09:57:07.337Z,97192.25
2017-08-06T09:59:33.161Z,97197.59
2017-08-06T10:01:59.200Z,97194.55
2017-08-06T10:04:25.232Z,97188.11
2017-08-06T10:06:51.240Z,97187.01
2017-08-06T10:09:17.268Z,97179.31
2017-08-06T10:11:43.291Z,97187.89
2017-08-06T10:14:09.229Z,97189.84
2017-08-06T10:16:35.237Z,97193.30
2017-08-06T10:19:01.180Z,97188.67
2017-08-06T10:21:27.172Z,97193.00
2017-08-06T10:23:53.226Z,97203.62
2017-08-06T10:26:19.127Z,97203.42
2017-08-06T10:28:45.079Z,97192.82
2017-08-06T10:31:10.904Z,97206.44
2017-08-06T10:33:36.796Z,97196.23
2017-08-06T10:36:02.749Z,97198.83
2017-08-06T10:38:28.651Z,97200.64
2017-08-06T10:40:54.565Z,97193.23
2017-08-06T10:43:20.537Z,97197.80
2017-08-06T10:45:46.385Z,97195.24
2017-08-06T10:48:12.206Z,97192.10
2017-08-06T10:50:38.230Z,97196.20
2017-08-06T10:53:04.238Z,97198.37
2017-08-06T10:55:30.080Z,97196.55
2017-08-06T10:57:55.871Z,97197.61
2017-08-06T11:00:21.748Z,97198.25
2017-08-06T11:02:47.727Z,97196.74
2017-08-06T11:05:13.757Z,97189.72
2017-08-06T11:07:39.784Z,97186.39
2017-08-06T11:10:05.593Z,97189.34
2017-08-06T11:12:31.652Z,97186.07
2017-08-06T11:14:57.657Z,97195.14
2017-08-06T11:17:23.656Z,97191.95
2017-08-06T11:19:49.717Z,97195.48
2017-08-06T11:22:15.643Z,97189.57
2017-08-06T11:24:41.500Z,97184.52
2017-08-06T11:27:07.359Z,97180.63
2017-08-06T11:29:33.186Z,97173.86
2017-08-06T11:31:59.100Z,97180.22
2017-08-06T11:34:25.060Z,97174.78
2017-08-06T11:36:50.882Z,97178.86
2017-08-06T11:39:16.700Z,97174.99
2017-08-06T11:41:42.703Z,97177.56
2017-08-06T11:44:08.539Z,97174.43
2017-08-06T11:46:34.510Z,97170.91
2017-08-06T11:49:00.379Z,97176.52
2017-08-06T11:51:26.269Z,97170.50
2017-08-06T11:53:52.087Z,97172.08
2017-08-06T11:56:17.944Z,97166.02
2017-08-06T11:58:43.824Z,97174.30
2017-08-06T12:01:09.658Z,97176.63
2017-08-06T12:03:35.564Z,97170.43
2017-08-06T12:06:01.452Z,97162.78
2017-08-06T12:08:27.359Z,97162.28
2017-08-06T12:10:53.188Z,97160.45
2017-08-06T12:13:19.042Z,97163.50
2017-08-06T12:15:44.900Z,97161.71
2017-08-06T12:18:10.777Z,97152.80
2017-08-06T12:20:36.657Z,97141.05
2017-08-06T12:23:02.483Z,97154.27
2017-08-06T12:25:28.305Z,97148.13
2017-08-06T12:27:54.212Z,97132.69
2017-08-06T12:30:20.081Z,97154.40
2017-08-06T12:32:45.936Z,97154.59
2017-08-06T12:35:11.751Z,97147.83
2017-08-06T12:37:37.605Z,97146.58
2017-08-06T12:40:03.452Z,97145.11
2017-08-06T12:42:29.463Z,97156.31
2017-08-06T12:44:55.340Z,97152.28
2017-08-06T12:47:21.335Z,97148.87
2017-08-06T12:49:47.235Z,97152.27
2017-08-06T12:52:13.151Z,97143.65
2017-08-06T12:54:39.093Z,97157.36
2017-08-06T12:57:04.955Z,97139.17
2017-08-06T12:59:30.815Z,97147.14
2017-08-06T13:01:56.851Z,97144.73
2017-08-06T13:04:22.791Z,97144.84
2017-08-06T13:06:48.602Z,97146.72
2017-08-06T13:09:14.464Z,97137.33
2017-08-06T13:11:40.309Z,97136.71
2017-08-06T13:14:06.119Z,97132.12
2017-08-06T13:16:31.966Z,97129.20
2017-08-06T13:18:57.939Z,97129.86
2017-08-06T13:21:23.808Z,97125.96
2017-08-06T13:23:49.721Z,97125.78
2017-08-06T13:26:15.568Z,97121.92
2017-08-06T13:28:41.433Z,97128.89
2017-08-06T13:31:07.248Z,97131.22
2017-08-06T13:33:33.091Z,97128.77
2017-08-06T13:35:58.967Z,97132.27
2017-08-06T13:38:24.928Z,97133.14
2017-08-06T13:40:50.737Z,97139.53
2017-08-06T13:43:16.589Z,97128.66
2017-08-06T13:45:42.503Z,97136.64
2017-08-06T13:48:08.412Z,97135.95
2017-08-06T13:50:34.435Z,97137.80
2017-08-06T13:53:00.250Z,97138.42
2017-08-06T13:55:26.323Z,97132.41
2017-08-06T13:57:52.211Z,97135.04
2017-08-06T14:00:18.044Z,97127.70
2017-08-06T14:02:43.902Z,97128.28
2017-08-06T14:05:09.748Z,97121.70
2017-08-06T14:07:35.556Z,97128.08
2017-08-06T14:10:01.390Z,97132.81
2017-08-06T14:12:27.216Z,97135.48
2017-08-06T14:14:53.059Z,97136.84
2017-08-06T14:17:18.959Z,97142.99
2017-08-06T14:19:44.906Z,97143.48
2017-08-06T14:22:10.939Z,97148.23
2017-08-06T14:24:36.830Z,97145.90
2017-08-06T14:27:02.747Z,97146.29
2017-08-06T14:29:28.596Z,97144.41
2017-08-06T14:31:54.607Z,97140.80
2017-08-06T14:34:20.513Z,97135.95
2017-08-06T14:36:46.360Z,97136.77
2017-08-06T14:39:12.201Z,97149.97
2017-08-06T14:41:38.059Z,97146.03
2017-08-06T14:44:03.879Z,97140.30
2017-08-06T14:46:29.719Z,97138.01
2017-08-06T14:48:55.624Z,97143.45
2017-08-06T14:51:21.551Z,97142.66
2017-08-06T14:53:47.495Z,97136.73
2017-08-06T14:56:13.303Z,97146.46
2017-08-06T14:58:39.152Z,97144.97
2017-08-06T15:01:05.067Z,97147.39
2017-08-06T15:03:30.888Z,97150.42
2017-08-06T15:05:56.851Z,97148.23
2017-08-06T15:08:22.688Z,97143.92
2017-08-06T15:10:48.625Z,97150.88
2017-08-06T15:13:14.521Z,97149.73
2017-08-06T15:15:40.429Z,97144.91
2017-08-06T15:18:06.271Z,97148.69
2017-08-06T15:20:32.192Z,97149.59
2017-08-06T15:22:58.184Z,97147.06
2017-08-06T15:25:24.021Z,97146.31
2017-08-06T15:27:49.842Z,97143.53
2017-08-06T15:30:15.701Z,97150.46
2017-08-06T15:32:41.612Z,97150.23
2017-08-06T15:35:07.499Z,97147.45
2017-08-06T15:37:33.562Z,97147.73
2017-08-06T15:39:59.500Z,97153.16
2017-08-06T15:42:25.321Z,97150.23
2017-08-06T15:44:51.183Z,97148.09
2017-08-06T15:47:17.230Z,97151.70
2017-08-06T15:49:43.191Z,97158.45
2017-08-06T15:52:09.024Z,97160.00
2017-08-06T15:54:35.042Z,97155.12
2017-08-06T15:57:00.927Z,97154.89
2017-08-06T15:59:26.819Z,97148.21
2017-08-06T16:01:52.727Z,97150.97
2017-08-06T16:04:18.571Z,97165.02
2017-08-06T16:06:44.461Z,97164.47
2017-08-06T16:09:10.412Z,97158.92
2017-08-06T16:11:36.320Z,97164.00
2017-08-06T16:14:02.227Z,97160.31
2017-08-06T16:16:28.075Z,97165.31
2017-08-06T16:18:53.986Z,97165.14
2017-08-06T16:21:19.909Z,97169.85
2017-08-06T16:23:45.744Z,97166.32
2017-08-06T16:26:11.632Z,97162.46
2017-08-06T16:28:37.480Z,97161.18
2017-08-06T16:31:03.286Z,97156.35
2017-08-06T16:33:29.128Z,97154.66
2017-08-06T16:35:54.993Z,97161.70
2017-08-06T16:38:20.865Z,97155.84
2017-08-06T16:40:46.830Z,97150.17
2017-08-06T16:43:12.665Z,97154.91
2017-08-06T16:45:38.468Z,97152.56
2017-08-06T16:48:04.322Z,97151.73
2017-08-06T16:50:30.231Z,97155.34
2017-08-06T16:52:56.152Z,97151.33
2017-08-06T16:55:22.204Z,97150.09
2017-08-06T16:57:48.143Z,97152.28
2017-08-06T17:00:13.951Z,97152.14
2017-08-06T17:02:40.068Z,97158.19
2017-08-06T17:05:06.087Z,97151.17
2017-08-06T17:07:32.040Z,97160.95
2017-08-06T17:09:57.971Z,97162.83
2017-08-06T17:12:23.853Z,97171.78
2017-08-06T17:14:49.657Z,97169.23
2017-08-06T17:17:15.515Z,97169.47
2017-08-06T17:19:41.313Z,97166.88
2017-08-06T17:22:07.112Z,97166.05
2017-08-06T17:24:32.953Z,97164.48
2017-08-06T17:26:59.013Z,97171.19
2017-08-06T17:29:24.985Z,97158.25
2017-08-06T17:31:50.905Z,97160.14
2017-08-06T17:34:16.754Z,97160.83
2017-08-06T17:36:42.724Z,97158.70
2017-08-06T17:39:08.611Z,97158.77
2017-08-06T17:41:34.466Z,97164.59
2017-08-06T17:44:00.277Z,97162.61
2017-08-06T17:46:26.745Z,97168.97
2017-08-06T17:48:52.637Z,97170.23
2017-08-06T17:51:18.566Z,97168.73
2017-08-06T17:53:44.428Z,97161.11
2017-08-06T17:56:10.294Z,97160.08
2017-08-06T17:58:36.322Z,97163.02
2017-08-06T18:01:02.251Z,97159.72
2017-08-06T18:03:28.177Z,97161.08
2017-08-06T18:05:54.114Z,97172.90
2017-08-06T18:08:20.051Z,97175.48
2017-08-06T18:10:46.883Z,97171.77
2017-08-06T18:13:12.863Z,97162.20
2017-08-06T18:15:38.861Z,97163.48
2017-08-06T18:18:04.725Z,97169.18
2017-08-06T18:20:30.633Z,97164.97
2017-08-06T18:22:56.485Z,97164.03
2017-08-06T18:25:22.369Z,97166.13
2017-08-06T18:27:48.149Z,97169.83
2017-08-06T18:30:14.038Z,97162.16
2017-08-06T18:32:39.932Z,97170.68
2017-08-06T18:35:05.747Z,97173.66
2017-08-06T18:37:31.600Z,97170.84
2017-08-06T18:39:57.416Z,97168.95
2017-08-06T18:42:23.271Z,97171.02
2017-08-06T18:44:49.117Z,97184.69
2017-08-06T18:47:15.138Z,97181.34
2017-08-06T18:49:40.973Z,97181.17
2017-08-06T18:52:06.846Z,97186.43
2017-08-06T18:54:32.776Z,97175.45
2017-08-06T18:56:58.623Z,97185.12
2017-08-06T18:59:24.673Z,97185.62
2017-08-06T19:01:50.607Z,97187.41
2017-08-06T19:04:16.485Z,97182.67
2017-08-06T19:06:42.361Z,97194.23
2017-08-06T19:09:08.343Z,97192.17
2017-08-06T19:11:34.391Z,97199.55
2017-08-06T19:14:00.298Z,97201.44
2017-08-06T19:16:26.223Z,97197.72
2017-08-06T19:18:52.141Z,97206.01
2017-08-06T19:21:17.987Z,97203.45
2017-08-06T19:23:43.839Z,97206.47
2017-08-06T19:26:09.645Z,97205.99
2017-08-06T19:28:35.459Z,97209.10
2017-08-06T19:31:01.351Z,97204.93
2017-08-06T19:33:27.251Z,97204.86
2017-08-06T19:35:53.201Z,97198.23
2017-08-06T19:38:19.181Z,97200.17
2017-08-06T19:40:45.006Z,97204.28
2017-08-06T19:43:11.025Z,97210.75
2017-08-06T19:45:36.942Z,97211.22
2017-08-06T19:48:02.881Z,97216.09
2017-08-06T19:50:28.708Z,97217.25
2017-08-06T19:52:54.754Z,97220.23
2017-08-06T19:55:20.654Z,97219.87
2017-08-06T19:57:46.516Z,97220.83
2017-08-06T20:00:12.423Z,97222.71
2017-08-06T20:02:39.129Z,97229.09
2017-08-06T20:05:04.947Z,97217.33
2017-08-06T20:07:30.795Z,97201.89
2017-08-06T20:09:56.663Z,97224.19
2017-08-06T20:12:22.540Z,97225.72
2017-08-06T20:14:48.468Z,97220.45
2017-08-06T20:17:14.332Z,97215.64
2017-08-06T20:19:40.206Z,97221.54
2017-08-06T20:22:06.175Z,97221.36
2017-08-06T20:24:31.996Z,97223.69
2017-08-06T20:26:57.843Z,97220.16
2017-08-06T20:29:23.746Z,97224.58
2017-08-06T20:31:49.614Z,97220.95
2017-08-06T20:34:15.460Z,97219.91
2017-08-06T20:36:41.331Z,97221.30
2017-08-06T20:39:07.231Z,97223.65
2017-08-06T20:41:33.042Z,97225.32
2017-08-06T20:43:58.896Z,97222.06
2017-08-06T20:46:24.718Z,97226.34
2017-08-06T20:48:50.579Z,97225.38
2017-08-06T20:51:16.407Z,97220.41
2017-08-06T20:53:42.228Z,97219.16
2017-08-06T20:56:08.206Z,97221.50
2017-08-06T20:58:34.012Z,97220.77
2017-08-06T21:00:59.888Z,97225.66
2017-08-06T21:03:25.947Z,97219.72
2017-08-06T21:05:51.857Z,97224.91
2017-08-06T21:08:17.682Z,97224.18
2017-08-06T21:10:43.503Z,97219.80
2017-08-06T21:13:09.727Z,97213.41
2017-08-06T21:15:35.548Z,97223.19
2017-08-06T21:18:01.391Z,97222.95
2017-08-06T21:20:27.331Z,97217.23
2017-08-06T21:22:53.244Z,97201.39
2017-08-06T21:25:19.138Z,97204.73
2017-08-06T21:27:45.043Z,97201.75
2017-08-06T21:30:10.967Z,97205.15
2017-08-06T21:32:36.884Z,97196.86
2017-08-06T21:35:02.796Z,97204.37
2017-08-06T21:37:29.276Z,97198.77
2017-08-06T21:39:55.159Z,97196.77
2017-08-06T21:42:21.026Z,97197.63
2017-08-06T21:44:46.887Z,97194.81
2017-08-06T21:47:12.890Z,97195.92
2017-08-06T21:49:38.742Z,97195.48
2017-08-06T21:52:04.650Z,97192.01
2017-08-06T21:54:30.589Z,97192.62
2017-08-06T21:56:56.572Z,97184.63
2017-08-06T21:59:22.420Z,97195.37
2017-08-06T22:01:48.421Z,97195.39
2017-08-06T22:04:14.264Z,97187.49
2017-08-06T22:06:40.274Z,97193.23
2017-08-06T22:09:06.266Z,97190.52
2017-08-06T22:11:32.113Z,97186.81
2017-08-06T22:13:58.048Z,97192.48
2017-08-06T22:16:23.891Z,97192.19
2017-08-06T22:18:49.755Z,97198.44
2017-08-06T22:21:15.627Z,97202.27
2017-08-06T22:23:41.516Z,97194.84
2017-08-06T22:26:07.366Z,97190.55
2017-08-06T22:28:33.235Z,97180.12
2017-08-06T22:30:59.051Z,97184.62
2017-08-06T22:33:24.943Z,97184.64
2017-08-06T22:35:50.815Z,97191.64
2017-08-06T22:38:16.648Z,97186.30
2017-08-06T22:40:42.564Z,97175.31
2017-08-06T22:43:08.499Z,97189.65
2017-08-06T22:45:34.367Z,97189.94
2017-08-06T22:48:00.187Z,97190.92
2017-08-06T22:50:26.008Z,97181.23
2017-08-06T22:52:51.869Z,97181.61
2017-08-06T22:55:17.775Z,97177.20
2017-08-06T22:57:43.607Z,97171.31
2017-08-06T23:00:09.463Z,97179.28
2017-08-06T23:02:35.321Z,97179.00
2017-08-06T23:05:01.133Z,97173.59
2017-08-06T23:07:26.983Z,97181.37
2017-08-06T23:09:52.907Z,97179.47
2017-08-06T23:12:18.763Z,97167.11
2017-08-06T23:14:44.662Z,97176.12
2017-08-06T23:17:10.623Z,97176.44
2017-08-06T23:19:36.419Z,97178.17
2017-08-06T23:22:02.272Z,97180.22
2017-08-06T23:24:28.098Z,97174.05
2017-08-06T23:26:53.937Z,97175.23
2017-08-06T23:29:19.870Z,97171.97
2017-08-06T23:31:45.760Z,97171.14
2017-08-06T23:34:11.699Z,97169.50
2017-08-06T23:36:37.537Z,97174.98
2017-08-06T23:39:03.439Z,97170.80
2017-08-06T23:41:29.392Z,97162.52
2017-08-06T23:43:55.225Z,97164.48
2017-08-06T23:46:21.094Z,97166.37
2017-08-06T23:48:47.008Z,97173.17
2017-08-06T23:51:12.828Z,97175.19
2017-08-06T23:53:38.672Z,97170.95
2017-08-06T23:56:04.551Z,97162.36
2017-08-06T23:58:30.511Z,97164.50
